createdAt,value
2019-04-30T00:00:34.823Z,95.90
2019-04-30T00:03:17.967Z,96.20
2019-04-30T00:05:45.048Z,96.30
2019-04-30T00:08:16.014Z,96.10
2019-04-30T00:10:46.368Z,95.30
2019-04-30T00:13:20.626Z,96.00
2019-04-30T00:15:52.827Z,96.40
2019-04-30T00:18:20.435Z,96.20
2019-04-30T00:20:50.711Z,97.10
2019-04-30T00:23:22.609Z,95.70
2019-04-30T00:25:52.993Z,98.30
2019-04-30T00:28:23.254Z,96.80
2019-04-30T00:30:56.035Z,96.00
2019-04-30T00:33:27.664Z,97.10
2019-04-30T00:35:58.077Z,96.40
2019-04-30T00:38:29.559Z,96.40
2019-04-30T00:41:01.899Z,99.90
2019-04-30T00:43:32.390Z,97.60
2019-04-30T00:46:02.743Z,96.70
2019-04-30T00:48:33.207Z,96.80
2019-04-30T00:51:07.523Z,96.10
2019-04-30T00:53:35.907Z,98.60
2019-04-30T00:56:06.418Z,96.60
2019-04-30T00:58:36.834Z,96.40
2019-04-30T01:01:25.390Z,96.80
2019-04-30T01:04:01.944Z,96.90
2019-04-30T01:06:32.138Z,96.50
2019-04-30T01:09:05.507Z,96.60
2019-04-30T01:11:35.518Z,96.20
2019-04-30T01:14:06.000Z,96.90
2019-04-30T01:16:36.185Z,96.40
2019-04-30T01:19:11.420Z,96.50
2019-04-30T01:21:41.769Z,96.80
2019-04-30T01:24:10.426Z,96.70
2019-04-30T01:26:40.880Z,96.50
2019-04-30T01:29:11.070Z,96.80
2019-04-30T01:31:41.255Z,96.50
2019-04-30T01:34:14.022Z,96.30
2019-04-30T01:36:43.632Z,97.50
2019-04-30T01:39:15.308Z,97.30
2019-04-30T01:41:45.664Z,96.70
2019-04-30T01:44:15.970Z,96.80
2019-04-30T01:46:48.231Z,96.70
2019-04-30T01:49:20.019Z,97.00
2019-04-30T01:51:52.911Z,96.80
2019-04-30T01:54:24.316Z,96.30
2019-04-30T01:57:05.152Z,97.70
2019-04-30T01:59:53.360Z,96.40
2019-04-30T02:02:25.246Z,97.50
2019-04-30T02:04:55.646Z,96.40
2019-04-30T02:07:26.006Z,96.70
2019-04-30T02:09:58.354Z,96.60
2019-04-30T02:12:29.694Z,98.40
2019-04-30T02:15:00.022Z,97.10
2019-04-30T02:17:30.238Z,98.40
2019-04-30T02:20:00.524Z,96.30
2019-04-30T02:22:31.220Z,98.00
2019-04-30T02:25:01.647Z,98.20
2019-04-30T02:27:31.904Z,98.20
2019-04-30T02:30:02.738Z,97.10
2019-04-30T02:32:33.411Z,97.30
2019-04-30T02:35:10.974Z,98.10
2019-04-30T02:38:00.314Z,97.60
2019-04-30T02:40:32.522Z,97.50
2019-04-30T02:43:03.255Z,98.30
2019-04-30T02:45:35.921Z,97.10
2019-04-30T02:48:11.481Z,97.50
2019-04-30T02:50:42.285Z,98.00
2019-04-30T02:53:50.506Z,97.20
2019-04-30T02:56:26.605Z,96.50
2019-04-30T02:58:55.382Z,97.50
2019-04-30T03:01:25.694Z,97.00
2019-04-30T03:03:55.864Z,97.70
2019-04-30T03:06:26.217Z,97.90
2019-04-30T03:08:56.401Z,97.80
2019-04-30T03:11:26.670Z,97.30
2019-04-30T03:13:59.101Z,97.40
2019-04-30T03:16:37.103Z,97.30
2019-04-30T03:19:35.459Z,97.00
2019-04-30T03:22:12.893Z,97.50
2019-04-30T03:24:43.214Z,97.10
2019-04-30T03:27:13.395Z,99.50
2019-04-30T03:29:43.735Z,97.80
2019-04-30T03:32:14.581Z,96.80
2019-04-30T03:34:45.041Z,97.90
2019-04-30T03:37:15.318Z,97.30
2019-04-30T03:39:45.673Z,97.20
2019-04-30T03:42:15.788Z,97.10
2019-04-30T03:44:46.102Z,97.60
2019-04-30T03:47:16.334Z,98.40
2019-04-30T03:49:46.671Z,97.30
2019-04-30T03:52:19.497Z,97.10
2019-04-30T03:54:49.483Z,97.80
2019-04-30T03:57:20.630Z,97.20
2019-04-30T03:59:51.139Z,97.90
2019-04-30T04:02:52.495Z,99.30
2019-04-30T04:05:35.420Z,98.70
2019-04-30T04:08:29.341Z,98.70
2019-04-30T04:11:10.149Z,97.00
2019-04-30T04:13:40.406Z,97.00
2019-04-30T04:16:10.725Z,97.30
2019-04-30T04:18:40.956Z,96.50
2019-04-30T04:21:16.197Z,96.70
2019-04-30T04:23:43.167Z,96.40
2019-04-30T04:26:13.336Z,96.70
2019-04-30T04:28:43.726Z,97.00
2019-04-30T04:31:13.869Z,96.70
2019-04-30T04:33:44.096Z,96.60
2019-04-30T04:36:14.442Z,97.70
2019-04-30T04:38:44.666Z,98.30
2019-04-30T04:41:14.979Z,96.40
2019-04-30T04:43:45.180Z,96.40
2019-04-30T04:46:15.520Z,98.20
2019-04-30T04:48:45.864Z,96.60
2019-04-30T04:51:33.385Z,98.00
2019-04-30T04:53:50.014Z,96.90
2019-04-30T04:56:20.166Z,96.30
2019-04-30T04:58:50.493Z,97.30
2019-04-30T05:01:20.915Z,96.70
2019-04-30T05:03:51.257Z,98.00
2019-04-30T05:06:22.298Z,97.30
2019-04-30T05:08:52.814Z,97.20
2019-04-30T05:11:23.099Z,98.00
2019-04-30T05:13:53.489Z,98.40
2019-04-30T05:16:23.631Z,96.80
2019-04-30T05:18:53.851Z,97.80
2019-04-30T05:21:24.092Z,97.50
2019-04-30T05:23:54.311Z,96.10
2019-04-30T05:26:24.540Z,95.70
2019-04-30T05:28:54.893Z,95.80
2019-04-30T05:31:25.053Z,96.00
2019-04-30T05:33:55.386Z,95.50
2019-04-30T05:36:25.783Z,96.30
2019-04-30T05:38:55.981Z,95.60
2019-04-30T05:41:26.299Z,95.50
2019-04-30T05:43:58.986Z,95.50
2019-04-30T05:46:29.839Z,96.60
2019-04-30T05:49:00.630Z,95.40
2019-04-30T05:51:30.957Z,95.00
2019-04-30T05:54:01.133Z,94.90
2019-04-30T05:56:31.485Z,95.20
2019-04-30T05:59:01.901Z,96.00
2019-04-30T06:01:32.233Z,95.40
2019-04-30T06:04:02.531Z,95.40
2019-04-30T06:06:33.691Z,95.40
2019-04-30T06:09:34.074Z,95.30
2019-04-30T06:12:15.847Z,95.70
2019-04-30T06:14:52.618Z,95.60
2019-04-30T06:17:22.869Z,95.30
2019-04-30T06:19:53.198Z,95.70
2019-04-30T06:22:23.983Z,95.50
2019-04-30T06:24:54.508Z,96.20
2019-04-30T06:27:24.718Z,95.60
2019-04-30T06:29:55.084Z,95.80
2019-04-30T06:32:25.418Z,95.50
2019-04-30T06:34:56.010Z,95.90
2019-04-30T06:37:26.824Z,94.80
2019-04-30T06:39:57.121Z,95.50
2019-04-30T06:42:29.406Z,95.90
2019-04-30T06:45:00.270Z,95.50
2019-04-30T06:47:33.261Z,96.30
2019-04-30T06:50:03.816Z,96.00
2019-04-30T06:52:34.119Z,96.20
2019-04-30T06:55:04.682Z,96.50
2019-04-30T06:57:35.063Z,96.50
2019-04-30T07:00:06.450Z,96.30
2019-04-30T07:02:36.801Z,95.60
2019-04-30T07:05:09.917Z,95.30
2019-04-30T07:07:41.748Z,94.90
2019-04-30T07:10:20.424Z,94.70
2019-04-30T07:12:58.803Z,94.70
2019-04-30T07:15:29.598Z,94.70
2019-04-30T07:17:59.924Z,94.70
2019-04-30T07:20:33.906Z,94.70
2019-04-30T07:23:03.251Z,94.70
2019-04-30T07:25:33.905Z,94.90
2019-04-30T07:28:04.111Z,94.30
2019-04-30T07:30:34.419Z,94.30
2019-04-30T07:33:04.664Z,94.40
2019-04-30T07:35:34.927Z,94.50
2019-04-30T07:38:05.138Z,94.70
2019-04-30T07:40:35.486Z,94.40
2019-04-30T07:43:08.886Z,94.60
2019-04-30T07:45:39.756Z,94.50
2019-04-30T07:48:10.106Z,94.50
2019-04-30T07:50:41.454Z,94.30
2019-04-30T07:53:12.771Z,94.60
2019-04-30T07:55:43.456Z,94.90
2019-04-30T07:58:13.664Z,95.00
2019-04-30T08:00:43.886Z,95.20
2019-04-30T08:03:36.318Z,95.10
2019-04-30T08:06:09.816Z,94.30
2019-04-30T08:08:40.970Z,94.00
2019-04-30T08:11:22.929Z,94.00
2019-04-30T08:13:43.725Z,93.70
2019-04-30T08:16:14.214Z,93.80
2019-04-30T08:18:44.427Z,93.70
2019-04-30T08:21:14.606Z,93.10
2019-04-30T08:23:44.846Z,93.40
2019-04-30T08:26:15.206Z,93.10
2019-04-30T08:28:45.564Z,93.10
2019-04-30T08:31:15.840Z,92.90
2019-04-30T08:33:46.176Z,93.40
2019-04-30T08:36:16.400Z,93.30
2019-04-30T08:38:46.659Z,92.90
2019-04-30T08:41:19.157Z,93.10
2019-04-30T08:43:49.646Z,92.80
2019-04-30T08:46:20.141Z,92.70
2019-04-30T08:48:53.295Z,92.50
2019-04-30T08:51:22.401Z,92.80
2019-04-30T08:53:52.738Z,92.60
2019-04-30T08:56:23.033Z,92.30
2019-04-30T08:58:54.864Z,92.40
2019-04-30T09:01:25.364Z,91.80
2019-04-30T09:03:55.754Z,92.50
2019-04-30T09:06:29.119Z,92.10
2019-04-30T09:09:11.042Z,92.40
2019-04-30T09:11:51.948Z,92.50
2019-04-30T09:14:13.305Z,92.10
2019-04-30T09:16:43.869Z,92.10
2019-04-30T09:19:14.137Z,91.70
2019-04-30T09:21:44.479Z,92.30
2019-04-30T09:24:14.779Z,92.50
2019-04-30T09:26:45.019Z,92.50
2019-04-30T09:29:15.291Z,92.50
2019-04-30T09:31:45.527Z,91.90
2019-04-30T09:34:18.582Z,91.60
2019-04-30T09:36:48.999Z,91.40
2019-04-30T09:39:19.942Z,91.30
2019-04-30T09:41:51.479Z,92.10
2019-04-30T09:44:21.737Z,92.10
2019-04-30T09:46:51.901Z,91.90
2019-04-30T09:49:22.508Z,92.10
2019-04-30T09:51:52.787Z,92.20
2019-04-30T09:54:23.485Z,91.30
2019-04-30T09:56:54.083Z,91.40
2019-04-30T09:59:24.319Z,90.70
2019-04-30T10:01:54.583Z,89.90
2019-04-30T10:04:25.225Z,90.20
2019-04-30T10:06:55.887Z,91.40
2019-04-30T10:09:26.337Z,90.30
2019-04-30T10:12:02.101Z,90.20
2019-04-30T10:14:32.461Z,90.90
2019-04-30T10:17:11.214Z,91.30
2019-04-30T10:19:42.012Z,91.20
2019-04-30T10:22:12.243Z,90.50
2019-04-30T10:24:42.505Z,91.50
2019-04-30T10:27:13.556Z,91.50
2019-04-30T10:29:44.169Z,90.90
2019-04-30T10:32:14.413Z,90.40
2019-04-30T10:34:44.788Z,90.50
2019-04-30T10:37:14.971Z,88.70
2019-04-30T10:39:45.303Z,90.60
2019-04-30T10:42:15.991Z,90.50
2019-04-30T10:44:46.399Z,89.90
2019-04-30T10:47:16.784Z,90.10
2019-04-30T10:49:48.657Z,90.10
2019-04-30T10:52:19.310Z,89.50
2019-04-30T10:54:49.780Z,87.40
2019-04-30T10:57:20.049Z,86.40
2019-04-30T10:59:50.420Z,89.80
2019-04-30T11:02:20.735Z,89.80
2019-04-30T11:04:51.101Z,86.90
2019-04-30T11:07:21.403Z,85.70
2019-04-30T11:09:51.603Z,86.20
2019-04-30T11:12:21.820Z,86.00
2019-04-30T11:14:52.093Z,86.60
2019-04-30T11:17:22.635Z,85.30
2019-04-30T11:19:53.018Z,87.40
2019-04-30T11:22:23.639Z,85.40
2019-04-30T11:25:01.567Z,87.10
2019-04-30T11:27:26.423Z,82.80
2019-04-30T11:30:01.443Z,84.60
2019-04-30T11:32:28.954Z,87.60
2019-04-30T11:34:59.391Z,85.50
2019-04-30T11:37:29.634Z,82.80
2019-04-30T11:39:59.946Z,80.90
2019-04-30T11:42:32.320Z,82.60
2019-04-30T11:45:02.761Z,81.50
2019-04-30T11:47:38.479Z,80.30
2019-04-30T11:50:14.423Z,83.70
2019-04-30T11:52:44.712Z,82.10
2019-04-30T11:55:15.386Z,78.30
2019-04-30T11:57:45.711Z,80.80
2019-04-30T12:00:23.063Z,76.30
2019-04-30T12:02:53.350Z,81.10
2019-04-30T12:05:23.574Z,76.30
2019-04-30T12:08:09.621Z,75.90
2019-04-30T12:10:50.730Z,80.30
2019-04-30T12:13:28.788Z,77.50
2019-04-30T12:16:00.135Z,76.40
2019-04-30T12:18:30.425Z,72.70
2019-04-30T12:21:00.755Z,74.10
2019-04-30T12:23:31.075Z,78.50
2019-04-30T12:26:02.987Z,75.10
2019-04-30T12:28:33.715Z,72.40
2019-04-30T12:31:05.896Z,72.90
2019-04-30T12:33:36.048Z,72.10
2019-04-30T12:36:08.916Z,73.20
2019-04-30T12:38:39.360Z,71.90
2019-04-30T12:41:09.632Z,73.80
2019-04-30T12:43:39.879Z,75.30
2019-04-30T12:46:10.271Z,74.40
2019-04-30T12:49:04.937Z,71.50
2019-04-30T12:52:06.322Z,76.70
2019-04-30T12:54:45.244Z,69.20
2019-04-30T12:57:31.292Z,66.20
2019-04-30T13:00:01.647Z,70.00
2019-04-30T13:02:32.071Z,66.10
2019-04-30T13:05:02.403Z,67.30
2019-04-30T13:07:33.208Z,66.70
2019-04-30T13:10:04.464Z,63.00
2019-04-30T13:12:35.808Z,69.10
2019-04-30T13:15:08.542Z,70.00
2019-04-30T13:17:38.815Z,62.60
2019-04-30T13:20:18.639Z,63.20
2019-04-30T13:22:41.075Z,64.20
2019-04-30T13:25:11.241Z,58.00
2019-04-30T13:27:44.860Z,60.40
2019-04-30T13:30:26.324Z,61.60
2019-04-30T13:33:20.248Z,61.20
2019-04-30T13:35:50.460Z,58.20
2019-04-30T13:38:45.180Z,61.50
2019-04-30T13:41:26.797Z,64.70
2019-04-30T13:43:58.852Z,63.50
2019-04-30T13:46:29.228Z,59.50
2019-04-30T13:48:59.441Z,60.00
2019-04-30T13:51:29.694Z,58.50
2019-04-30T13:54:00.020Z,59.80
2019-04-30T13:56:30.310Z,59.40
2019-04-30T13:59:00.584Z,55.50
2019-04-30T14:01:30.906Z,50.50
2019-04-30T14:04:16.791Z,59.80
2019-04-30T14:06:57.367Z,61.30
2019-04-30T14:09:28.667Z,58.40
2019-04-30T14:11:58.947Z,61.40
2019-04-30T14:14:29.657Z,58.60
2019-04-30T14:17:01.197Z,54.00
2019-04-30T14:19:31.657Z,63.40
2019-04-30T14:22:01.899Z,60.90
2019-04-30T14:24:32.162Z,58.40
2019-04-30T14:27:02.441Z,54.30
2019-04-30T14:29:32.668Z,46.90
2019-04-30T14:32:02.955Z,55.90
2019-04-30T14:34:33.282Z,59.30
2019-04-30T14:37:03.601Z,58.60
2019-04-30T14:39:34.036Z,55.90
2019-04-30T14:42:05.081Z,55.00
2019-04-30T14:44:36.667Z,59.50
2019-04-30T14:47:17.201Z,62.50
2019-04-30T14:50:05.808Z,56.10
2019-04-30T14:52:42.453Z,54.10
2019-04-30T14:55:39.370Z,55.60
2019-04-30T14:58:43.844Z,55.70
2019-04-30T15:01:20.423Z,55.50
2019-04-30T15:03:50.652Z,49.10
2019-04-30T15:06:20.959Z,46.50
2019-04-30T15:08:51.292Z,49.10
2019-04-30T15:11:21.562Z,50.30
2019-04-30T15:13:51.808Z,53.10
2019-04-30T15:16:21.999Z,41.20
2019-04-30T15:18:52.104Z,51.90
2019-04-30T15:21:22.360Z,49.00
2019-04-30T15:24:01.656Z,51.30
2019-04-30T15:26:31.602Z,52.70
2019-04-30T15:29:11.774Z,49.30
2019-04-30T15:31:33.898Z,46.60
2019-04-30T15:34:11.896Z,48.20
2019-04-30T15:36:42.377Z,42.10
2019-04-30T15:39:30.851Z,44.80
2019-04-30T15:42:01.479Z,40.50
2019-04-30T15:44:31.673Z,43.00
2019-04-30T15:47:02.445Z,41.80
2019-04-30T15:49:32.793Z,47.20
2019-04-30T15:52:03.144Z,40.10
2019-04-30T15:54:33.576Z,42.00
2019-04-30T15:57:03.930Z,47.50
2019-04-30T15:59:43.878Z,43.10
2019-04-30T16:02:33.541Z,47.10
2019-04-30T16:05:22.225Z,46.00
2019-04-30T16:08:04.645Z,45.00
2019-04-30T16:11:00.486Z,44.90
2019-04-30T16:13:34.819Z,41.00
2019-04-30T16:16:05.212Z,43.80
2019-04-30T16:18:45.843Z,41.50
2019-04-30T16:21:16.167Z,35.30
2019-04-30T16:23:48.548Z,44.60
2019-04-30T16:26:18.457Z,46.10
2019-04-30T16:28:49.594Z,45.30
2019-04-30T16:31:20.553Z,42.40
2019-04-30T16:33:50.838Z,44.70
2019-04-30T16:36:21.013Z,32.70
2019-04-30T16:38:51.277Z,36.60
2019-04-30T16:41:31.091Z,35.60
2019-04-30T16:43:53.677Z,38.60
2019-04-30T16:46:24.018Z,42.40
2019-04-30T16:48:54.279Z,38.90
2019-04-30T16:51:24.553Z,35.70
2019-04-30T16:53:54.791Z,41.80
2019-04-30T16:56:24.899Z,43.70
2019-04-30T16:59:03.082Z,41.20
2019-04-30T17:01:34.403Z,41.80
2019-04-30T17:04:11.176Z,37.50
2019-04-30T17:06:44.861Z,37.70
2019-04-30T17:09:25.596Z,39.60
2019-04-30T17:12:08.583Z,38.00
2019-04-30T17:14:39.838Z,40.80
2019-04-30T17:17:10.105Z,42.90
2019-04-30T17:19:40.451Z,39.90
2019-04-30T17:22:10.688Z,43.50
2019-04-30T17:24:40.932Z,40.80
2019-04-30T17:27:19.440Z,40.00
2019-04-30T17:29:43.270Z,42.50
2019-04-30T17:32:13.591Z,42.20
2019-04-30T17:34:43.939Z,42.50
2019-04-30T17:37:14.207Z,42.70
2019-04-30T17:39:44.373Z,43.20
2019-04-30T17:42:14.628Z,43.00
2019-04-30T17:44:56.753Z,42.90
2019-04-30T17:47:16.717Z,43.00
2019-04-30T17:49:50.830Z,41.60
2019-04-30T17:52:22.216Z,43.10
2019-04-30T17:54:52.501Z,40.20
2019-04-30T17:57:31.382Z,41.10
2019-04-30T17:59:54.729Z,42.10
2019-04-30T18:02:27.167Z,39.30
2019-04-30T18:04:57.884Z,42.80
2019-04-30T18:07:29.606Z,43.10
2019-04-30T18:09:59.970Z,42.60
2019-04-30T18:12:30.379Z,42.10
2019-04-30T18:15:00.788Z,43.20
2019-04-30T18:17:31.197Z,42.80
2019-04-30T18:20:18.726Z,43.40
2019-04-30T18:23:01.077Z,43.40
2019-04-30T18:25:41.972Z,42.20
2019-04-30T18:28:12.179Z,42.70
2019-04-30T18:30:42.464Z,42.10
2019-04-30T18:33:12.908Z,43.70
2019-04-30T18:35:43.203Z,42.80
2019-04-30T18:38:13.485Z,43.20
2019-04-30T18:40:43.710Z,43.20
2019-04-30T18:43:14.360Z,43.60
2019-04-30T18:45:44.677Z,43.90
2019-04-30T18:48:15.003Z,43.90
2019-04-30T18:50:45.234Z,43.60
2019-04-30T18:53:20.150Z,44.10
2019-04-30T18:55:50.767Z,44.50
2019-04-30T18:58:21.101Z,44.70
2019-04-30T19:00:51.411Z,44.50
2019-04-30T19:03:21.939Z,44.60
2019-04-30T19:05:58.705Z,44.70
2019-04-30T19:08:39.370Z,44.90
2019-04-30T19:11:28.937Z,45.00
2019-04-30T19:14:21.521Z,45.20
2019-04-30T19:17:05.723Z,45.20
2019-04-30T19:19:54.906Z,45.30
2019-04-30T19:22:25.133Z,45.40
2019-04-30T19:24:58.565Z,45.50
2019-04-30T19:27:27.283Z,46.20
2019-04-30T19:29:59.438Z,46.90
2019-04-30T19:32:30.500Z,46.10
2019-04-30T19:35:00.946Z,47.20
2019-04-30T19:37:31.276Z,46.90
2019-04-30T19:40:01.552Z,46.40
2019-04-30T19:42:32.066Z,46.60
2019-04-30T19:45:09.525Z,46.80
2019-04-30T19:47:34.446Z,46.80
2019-04-30T19:50:05.113Z,46.90
2019-04-30T19:52:35.463Z,47.10
2019-04-30T19:55:06.773Z,47.20
2019-04-30T19:57:37.018Z,47.10
2019-04-30T20:00:09.294Z,47.10
2019-04-30T20:02:39.986Z,47.40
2019-04-30T20:05:10.883Z,47.10
2019-04-30T20:07:41.070Z,47.60
2019-04-30T20:10:11.626Z,47.80
2019-04-30T20:12:41.894Z,48.20
2019-04-30T20:15:19.269Z,48.20
2019-04-30T20:18:04.009Z,48.30
2019-04-30T20:20:34.483Z,49.70
2019-04-30T20:23:04.824Z,48.20
2019-04-30T20:25:35.130Z,48.30
2019-04-30T20:28:05.481Z,47.90
2019-04-30T20:30:35.843Z,48.30
2019-04-30T20:33:06.136Z,48.50
2019-04-30T20:35:36.418Z,49.10
2019-04-30T20:38:25.593Z,49.70
2019-04-30T20:41:00.235Z,48.80
2019-04-30T20:43:28.558Z,49.20
2019-04-30T20:46:00.839Z,49.50
2019-04-30T20:48:31.131Z,50.90
2019-04-30T20:51:01.532Z,50.20
2019-04-30T20:53:32.093Z,49.40
2019-04-30T20:56:02.391Z,49.00
2019-04-30T20:58:32.705Z,48.70
2019-04-30T21:01:06.565Z,49.60
2019-04-30T21:03:35.373Z,50.20
2019-04-30T21:06:05.541Z,51.80
2019-04-30T21:08:35.884Z,50.30
2019-04-30T21:11:06.215Z,50.30
2019-04-30T21:13:36.463Z,50.20
2019-04-30T21:16:06.814Z,50.20
2019-04-30T21:18:39.050Z,51.90
2019-04-30T21:21:09.142Z,50.70
2019-04-30T21:23:39.459Z,51.20
2019-04-30T21:26:09.724Z,50.70
2019-04-30T21:28:40.075Z,52.40
2019-04-30T21:31:28.381Z,51.00
2019-04-30T21:34:05.526Z,51.60
2019-04-30T21:36:35.913Z,51.20
2019-04-30T21:39:08.970Z,51.00
2019-04-30T21:41:39.616Z,52.00
2019-04-30T21:44:09.967Z,54.00
2019-04-30T21:46:40.242Z,52.60
2019-04-30T21:49:10.711Z,53.20
2019-04-30T21:51:41.064Z,53.40
2019-04-30T21:54:11.361Z,51.40
2019-04-30T21:56:41.693Z,51.70
2019-04-30T21:59:23.855Z,52.40
2019-04-30T22:01:45.126Z,52.90
2019-04-30T22:04:15.703Z,53.60
2019-04-30T22:06:46.351Z,51.70
2019-04-30T22:09:16.712Z,52.10
2019-04-30T22:11:47.000Z,52.40
2019-04-30T22:14:17.326Z,52.00
2019-04-30T22:16:49.348Z,54.80
2019-04-30T22:19:19.788Z,56.10
2019-04-30T22:21:50.166Z,53.80
2019-04-30T22:24:20.512Z,54.70
2019-04-30T22:26:50.870Z,55.10
2019-04-30T22:29:21.234Z,54.40
2019-04-30T22:31:51.552Z,54.00
2019-04-30T22:34:21.938Z,53.40
2019-04-30T22:36:52.214Z,53.50
2019-04-30T22:39:36.208Z,54.80
2019-04-30T22:42:30.038Z,53.50
2019-04-30T22:45:01.396Z,53.00
2019-04-30T22:47:31.682Z,53.10
2019-04-30T22:50:02.025Z,53.10
2019-04-30T22:52:32.354Z,55.30
2019-04-30T22:55:02.583Z,54.60
2019-04-30T22:57:32.772Z,53.40
2019-04-30T23:00:03.062Z,56.40
2019-04-30T23:02:55.495Z,54.20
2019-04-30T23:05:25.767Z,56.10
2019-04-30T23:07:56.050Z,55.60
2019-04-30T23:10:26.282Z,55.20
2019-04-30T23:12:56.515Z,57.00
2019-04-30T23:15:26.844Z,55.50
2019-04-30T23:17:57.142Z,56.00
2019-04-30T23:20:27.289Z,56.10
2019-04-30T23:22:57.429Z,56.70
2019-04-30T23:25:27.685Z,55.20
2019-04-30T23:27:58.048Z,56.30
2019-04-30T23:30:28.226Z,56.60
2019-04-30T23:32:58.434Z,55.90
2019-04-30T23:35:28.683Z,56.50
2019-04-30T23:37:58.903Z,54.60
2019-04-30T23:40:32.217Z,56.90
2019-04-30T23:43:02.497Z,57.80
2019-04-30T23:45:32.758Z,58.30
2019-04-30T23:48:03.154Z,57.00
2019-04-30T23:50:33.445Z,56.70
2019-04-30T23:53:03.722Z,55.60
2019-04-30T23:55:34.134Z,55.70
2019-04-30T23:58:04.985Z,57.20
